Time;durP1;ratioP1;P1;durP2;ratioP2;P2;SDS_P1;SDS_P2;PMS_P1;PMS_P2;Temp;Humidity;BMP_temperature;BMP_pressure;BME280_temperature;BME280_humidity;BME280_pressure;Samples;Min_cycle;Max_cycle;Signal;HPM_P1;HPM_P2
2022/02/01 06:48:13;;;;;;;;;;;25.90;36.30;;;;;;3895583;22;19923;-90
2022/02/01 06:49:46;;;;;;;;;;;25.90;36.70;;;;;;3896585;22;19923;-93
2022/02/01 06:51:19;;;;;;;;;;;25.90;36.70;;;;;;3896249;22;19919;-91
2022/02/01 06:52:57;;;;;;;;;;;25.90;36.70;;;;;;3895665;22;19919;-91
2022/02/01 06:54:28;;;;;;;;;;;25.90;36.90;;;;;;3896932;22;19919;-93
2022/02/01 06:56:06;;;;;;;;;;;26.00;37.70;;;;;;3898548;22;20364;-91
2022/02/01 06:57:38;;;;;;;;;;;26.00;37.90;;;;;;3896866;22;19926;-91
2022/02/01 06:59:10;;;;;;;;;;;26.00;37.60;;;;;;3897571;22;19954;-92
2022/02/01 07:00:40;;;;;;;;;;;26.00;37.80;;;;;;3894675;22;19923;-89
2022/02/01 07:02:12;;;;;;;;;;;26.00;35.20;;;;;;3902939;22;19969;-90
2022/02/01 07:03:44;;;;;;;;;;;25.80;34.40;;;;;;3895006;22;20251;-88
2022/02/01 07:05:16;;;;;;;;;;;25.70;34.40;;;;;;3894662;22;20330;-87
2022/02/01 07:06:48;;;;;;;;;;;25.60;34.30;;;;;;3893860;22;19965;-90
2022/02/01 07:28:50;;;;;;;;;;;25.10;34.30;;;;;;3823479;23;19984;-85
2022/02/01 07:30:24;;;;;;;;;;;25.00;34.60;;;;;;3889665;22;19942;-87
2022/02/01 07:31:56;;;;;;;;;;;25.00;34.40;;;;;;3895993;22;19949;-89
2022/02/01 07:33:28;;;;;;;;;;;25.00;34.40;;;;;;3892763;22;20337;-88
2022/02/01 07:34:59;;;;;;;;;;;24.90;34.50;;;;;;3895790;22;20348;-91
2022/02/01 07:36:34;;;;;;;;;;;24.90;34.50;;;;;;3894817;22;19942;-92
2022/02/01 07:38:16;;;;;;;;;;;24.90;34.50;;;;;;3893615;22;19982;-92
2022/02/01 07:39:48;;;;;;;;;;;24.90;34.50;;;;;;3895398;22;19919;-91
2022/02/01 07:41:19;;;;;;;;;;;24.90;34.40;;;;;;3892814;22;19923;-91
2022/02/01 07:42:51;;;;;;;;;;;24.90;34.40;;;;;;3894285;22;19919;-90
2022/02/01 07:44:24;;;;;;;;;;;24.80;34.50;;;;;;3893111;22;20361;-90
2022/02/01 07:45:56;;;;;;;;;;;24.90;35.70;;;;;;3890621;22;19919;-90
2022/02/01 07:47:28;;;;;;;;;;;25.00;36.00;;;;;;3892466;22;19919;-92
2022/02/01 07:48:59;;;;;;;;;;;25.20;36.50;;;;;;3894101;22;19931;-92
2022/02/01 07:50:32;;;;;;;;;;;25.30;36.50;;;;;;3895707;22;20341;-92
2022/02/01 07:52:04;;;;;;;;;;;25.30;35.10;;;;;;3891433;22;20258;-90
2022/02/01 07:53:36;;;;;;;;;;;25.30;35.70;;;;;;3894943;22;19945;-91
2022/02/01 07:55:08;;;;;;;;;;;25.30;35.60;;;;;;3892339;22;19919;-89
2022/02/01 07:56:40;;;;;;;;;;;25.30;36.50;;;;;;3892439;22;19955;-92
2022/02/01 07:58:12;;;;;;;;;;;25.40;37.10;;;;;;3896524;22;19977;-89
2022/02/01 07:59:45;;;;;;;;;;;25.40;37.70;;;;;;3892872;22;19927;-90
2022/02/01 08:01:17;;;;;;;;;;;25.50;37.90;;;;;;3892844;22;19961;-92
2022/02/01 08:02:51;;;;;;;;;;;25.50;37.70;;;;;;3894609;22;19969;-91
2022/02/01 08:04:23;;;;;;;;;;;25.60;38.10;;;;;;3894394;22;20522;-91
2022/02/01 08:05:55;;;;;;;;;;;25.60;39.20;;;;;;3893694;22;19919;-90
2022/02/01 08:07:26;;;;;;;;;;;25.60;39.60;;;;;;3891738;22;19919;-90
2022/02/01 08:09:03;;;;;;;;;;;25.70;39.30;;;;;;3892705;22;19919;-87
2022/02/01 08:10:41;;;;;;;;;;;25.70;39.30;;;;;;3893776;22;19919;-90
2022/02/01 08:12:25;;;;;;;;;;;25.70;38.60;;;;;;3891406;22;19986;-88
2022/02/01 08:17:59;;;;;;;;;;;25.80;38.90;;;;;;3886810;22;20257;-91
2022/02/01 08:19:38;;;;;;;;;;;25.80;39.50;;;;;;3893787;22;19923;-91
2022/02/01 08:21:10;;;;;;;;;;;25.80;39.20;;;;;;3894251;22;20181;-90
2022/02/01 08:23:01;;;;;;;;;;;25.90;39.20;;;;;;3892921;22;19994;-90
2022/02/01 08:24:33;;;;;;;;;;;25.90;39.40;;;;;;3893471;22;19923;-85
2022/02/01 08:26:20;;;;;;;;;;;25.90;39.20;;;;;;3895724;22;19919;-93
2022/02/01 08:27:52;;;;;;;;;;;25.80;35.50;;;;;;3895789;22;19928;-91
2022/02/01 08:29:24;;;;;;;;;;;25.60;34.60;;;;;;3896309;22;19919;-93
2022/02/01 08:30:58;;;;;;;;;;;25.40;34.90;;;;;;3899614;22;19910;-93
2022/02/01 08:32:29;;;;;;;;;;;25.30;35.00;;;;;;3894348;22;19927;-91
2022/02/01 08:34:01;;;;;;;;;;;25.30;35.40;;;;;;3894407;22;19926;-85
2022/02/01 08:35:33;;;;;;;;;;;25.20;35.80;;;;;;3893676;22;19945;-89
2022/02/01 08:37:05;;;;;;;;;;;25.40;36.50;;;;;;3892545;22;20004;-92
2022/02/01 08:38:36;;;;;;;;;;;25.50;37.30;;;;;;3895174;22;19919;-90
2022/02/01 08:40:08;;;;;;;;;;;25.60;37.50;;;;;;3892655;22;20016;-88
2022/02/01 08:41:40;;;;;;;;;;;25.70;37.80;;;;;;3893618;22;19930;-90
2022/02/01 08:43:12;;;;;;;;;;;25.80;37.90;;;;;;3893988;22;19930;-91
2022/02/01 08:44:44;;;;;;;;;;;25.80;37.70;;;;;;3895241;22;19923;-88
2022/02/01 08:46:20;;;;;;;;;;;25.80;37.40;;;;;;3894313;22;19998;-88
2022/02/01 08:47:52;;;;;;;;;;;25.90;38.10;;;;;;3892263;22;19919;-91
2022/02/01 08:49:24;;;;;;;;;;;25.90;38.00;;;;;;3894129;22;19923;-87
2022/02/01 08:51:06;;;;;;;;;;;25.90;38.00;;;;;;3891552;22;20588;-86
2022/02/01 08:52:41;;;;;;;;;;;25.90;38.10;;;;;;3893025;22;20379;-86
2022/02/01 08:54:17;;;;;;;;;;;26.00;39.70;;;;;;3892221;22;20007;-91
2022/02/01 08:56:03;;;;;;;;;;;26.00;39.20;;;;;;3893488;22;19950;-87
2022/02/01 08:57:34;;;;;;;;;;;26.00;39.20;;;;;;3892638;22;19946;-89
2022/02/01 08:59:05;;;;;;;;;;;26.10;39.80;;;;;;3892996;22;19983;-89
2022/02/01 09:00:37;;;;;;;;;;;26.10;39.50;;;;;;3889619;22;19925;-89
2022/02/01 09:02:10;;;;;;;;;;;26.10;39.50;;;;;;3892513;22;19934;-85
2022/02/01 09:03:42;;;;;;;;;;;26.20;39.60;;;;;;3893108;22;19972;-86
2022/02/01 09:05:13;;;;;;;;;;;26.20;40.00;;;;;;3893728;22;19923;-88
2022/02/01 09:06:45;;;;;;;;;;;26.20;39.60;;;;;;3893667;22;20387;-84
2022/02/01 09:08:17;;;;;;;;;;;26.20;39.70;;;;;;3894134;22;19923;-91
2022/02/01 09:09:50;;;;;;;;;;;26.20;39.80;;;;;;3896316;22;20295;-88
2022/02/01 09:11:21;;;;;;;;;;;26.30;39.70;;;;;;3894693;22;20402;-91
2022/02/01 09:12:53;;;;;;;;;;;26.30;39.70;;;;;;3891444;22;19990;-90
2022/02/01 09:14:27;;;;;;;;;;;26.20;39.90;;;;;;3891729;22;19923;-90
2022/02/01 09:15:59;;;;;;;;;;;26.20;39.90;;;;;;3892196;22;19994;-89
2022/02/01 09:17:32;;;;;;;;;;;26.30;40.30;;;;;;3894268;22;19919;-90
2022/02/01 09:19:04;;;;;;;;;;;26.20;40.30;;;;;;3893196;22;19926;-89
2022/02/01 09:20:36;;;;;;;;;;;26.30;40.30;;;;;;3893323;22;20414;-90
2022/02/01 09:22:08;;;;;;;;;;;26.30;40.70;;;;;;3889076;22;20249;-89
2022/02/01 09:23:40;;;;;;;;;;;26.30;40.40;;;;;;3892713;22;19946;-91
2022/02/01 09:25:12;;;;;;;;;;;26.40;40.40;;;;;;3895993;22;19949;-91
2022/02/01 09:26:44;;;;;;;;;;;26.40;40.40;;;;;;3892072;22;20334;-90
2022/02/01 09:28:16;;;;;;;;;;;26.40;40.50;;;;;;3894698;22;19919;-90
2022/02/01 09:29:47;;;;;;;;;;;26.50;40.60;;;;;;3895403;22;19969;-88
2022/02/01 09:31:20;;;;;;;;;;;26.40;41.20;;;;;;3894229;22;19972;-93
2022/02/01 09:32:53;;;;;;;;;;;26.50;41.20;;;;;;3894406;22;19915;-93
2022/02/01 09:34:25;;;;;;;;;;;26.60;41.40;;;;;;3893484;22;19919;-88
2022/02/01 09:35:56;;;;;;;;;;;26.50;40.70;;;;;;3894926;22;19951;-90
2022/02/01 09:37:28;;;;;;;;;;;26.50;40.50;;;;;;3893234;22;19927;-88
2022/02/01 09:39:00;;;;;;;;;;;26.40;40.30;;;;;;3894988;22;19990;-91
2022/02/01 09:40:32;;;;;;;;;;;26.50;40.40;;;;;;3895875;22;19923;-90
2022/02/01 09:42:03;;;;;;;;;;;26.50;40.30;;;;;;3892743;22;19950;-88
2022/02/01 09:43:35;;;;;;;;;;;26.50;40.20;;;;;;3892117;22;20234;-90
2022/02/01 09:45:07;;;;;;;;;;;26.40;39.60;;;;;;3890807;22;19981;-90
2022/02/01 09:46:39;;;;;;;;;;;26.40;39.70;;;;;;3893405;22;19945;-91
2022/02/01 09:48:12;;;;;;;;;;;26.50;39.80;;;;;;3892847;22;19923;-89
2022/02/01 09:49:46;;;;;;;;;;;26.50;39.80;;;;;;3892634;22;19977;-91
2022/02/01 09:51:18;;;;;;;;;;;26.60;39.80;;;;;;3898988;22;19926;-91
2022/02/01 09:52:50;;;;;;;;;;;26.60;39.90;;;;;;3902020;22;19923;-89
2022/02/01 09:54:22;;;;;;;;;;;26.60;40.00;;;;;;3894708;22;19927;-90
2022/02/01 09:55:53;;;;;;;;;;;26.60;39.00;;;;;;3894568;22;19920;-91
2022/02/01 09:57:25;;;;;;;;;;;26.50;38.00;;;;;;3892781;22;19925;-90
2022/02/01 09:58:57;;;;;;;;;;;26.30;34.70;;;;;;3895633;22;19989;-91
2022/02/01 10:00:33;;;;;;;;;;;26.20;34.60;;;;;;3896912;22;19920;-93
2022/02/01 10:02:06;;;;;;;;;;;26.10;35.30;;;;;;3895824;22;19938;-90
2022/02/01 10:03:39;;;;;;;;;;;26.00;35.70;;;;;;3898852;22;19985;-90
2022/02/01 10:05:12;;;;;;;;;;;26.00;34.80;;;;;;3900183;22;19941;-92
2022/02/01 10:06:43;;;;;;;;;;;25.90;35.00;;;;;;3897896;22;20436;-94
2022/02/01 10:08:15;;;;;;;;;;;25.80;33.30;;;;;;3899720;22;20345;-90
2022/02/01 10:09:50;;;;;;;;;;;25.70;32.90;;;;;;3897376;22;19919;-88
2022/02/01 10:11:22;;;;;;;;;;;25.50;33.10;;;;;;3894134;22;19929;-90
2022/02/01 10:12:58;;;;;;;;;;;25.60;33.30;;;;;;3893346;22;19994;-93
2022/02/01 10:14:39;;;;;;;;;;;25.60;34.20;;;;;;3895569;22;19946;-91
2022/02/01 10:18:25;;;;;;;;;;;25.50;36.80;;;;;;3835562;23;19955;-89
2022/02/01 10:19:59;;;;;;;;;;;25.40;35.50;;;;;;3864916;22;19924;-88
2022/02/01 10:21:30;;;;;;;;;;;25.40;36.30;;;;;;3895478;22;19946;-90
2022/02/01 10:23:15;;;;;;;;;;;25.20;34.00;;;;;;3893464;22;19927;-91
2022/02/01 10:24:49;;;;;;;;;;;25.10;33.40;;;;;;3894678;22;20342;-90
2022/02/01 10:26:21;;;;;;;;;;;25.10;33.00;;;;;;3894959;22;19923;-91
2022/02/01 10:27:54;;;;;;;;;;;25.10;32.10;;;;;;3893100;22;19923;-93
2022/02/01 10:29:26;;;;;;;;;;;25.00;32.10;;;;;;3895786;22;19923;-92
2022/02/01 10:31:04;;;;;;;;;;;24.90;32.20;;;;;;3892023;22;19994;-92
2022/02/01 10:32:49;;;;;;;;;;;24.80;31.80;;;;;;3896414;22;19946;-92
2022/02/01 10:34:41;;;;;;;;;;;24.70;32.00;;;;;;3895598;22;19930;-91
2022/02/01 10:36:14;;;;;;;;;;;24.70;32.60;;;;;;3896827;22;19923;-93
2022/02/01 10:37:46;;;;;;;;;;;24.70;32.10;;;;;;3895187;22;19920;-89
2022/02/01 10:39:18;;;;;;;;;;;24.50;32.20;;;;;;3892746;22;19923;-92
2022/02/01 10:40:51;;;;;;;;;;;24.50;32.00;;;;;;3895137;22;19926;-88
2022/02/01 10:42:23;;;;;;;;;;;24.50;31.90;;;;;;3892357;22;19927;-90
2022/02/01 10:43:55;;;;;;;;;;;24.50;31.90;;;;;;3896545;22;19969;-90
2022/02/01 10:45:27;;;;;;;;;;;24.40;31.70;;;;;;3895049;22;19919;-94
2022/02/01 10:46:58;;;;;;;;;;;24.30;33.10;;;;;;3894955;22;25148;-92
2022/02/01 10:48:31;;;;;;;;;;;24.30;33.70;;;;;;3893953;22;19927;-93
2022/02/01 10:52:32;;;;;;;;;;;24.30;33.50;;;;;;3810441;23;19924;-90
2022/02/01 10:54:05;;;;;;;;;;;24.30;33.90;;;;;;3816911;23;19924;-88
2022/02/01 10:55:37;;;;;;;;;;;24.30;33.50;;;;;;3819004;23;19927;-88
2022/02/01 10:57:11;;;;;;;;;;;24.30;33.30;;;;;;3814186;23;20003;-89
2022/02/01 10:58:43;;;;;;;;;;;24.30;33.20;;;;;;3893031;22;19931;-92
2022/02/01 11:00:16;;;;;;;;;;;24.10;33.30;;;;;;3890183;22;19923;-87
2022/02/01 11:01:47;;;;;;;;;;;24.10;33.50;;;;;;3892715;22;19919;-88
2022/02/01 11:03:19;;;;;;;;;;;24.10;33.30;;;;;;3894480;22;19973;-90
2022/02/01 11:04:51;;;;;;;;;;;24.10;33.70;;;;;;3893896;22;19977;-88
2022/02/01 11:06:22;;;;;;;;;;;24.10;34.40;;;;;;3893494;22;19929;-87
2022/02/01 11:07:55;;;;;;;;;;;24.10;34.80;;;;;;3893176;22;19919;-87
2022/02/01 11:09:28;;;;;;;;;;;24.20;34.70;;;;;;3893187;22;19923;-84
2022/02/01 11:11:01;;;;;;;;;;;24.30;34.70;;;;;;3892522;22;20033;-86
2022/02/01 11:12:33;;;;;;;;;;;24.50;35.40;;;;;;3892530;22;19923;-87
2022/02/01 11:14:04;;;;;;;;;;;24.50;34.80;;;;;;3893745;22;20312;-87
2022/02/01 11:15:36;;;;;;;;;;;24.70;34.80;;;;;;3892429;22;19920;-87
2022/02/01 11:17:08;;;;;;;;;;;24.70;34.90;;;;;;3891816;22;20388;-87
2022/02/01 11:18:40;;;;;;;;;;;24.80;35.00;;;;;;3893588;22;20342;-87
2022/02/01 11:20:11;;;;;;;;;;;24.80;35.10;;;;;;3893199;22;19919;-86
2022/02/01 11:21:43;;;;;;;;;;;24.80;35.20;;;;;;3892401;22;19935;-87
2022/02/01 11:23:20;;;;;;;;;;;24.90;35.40;;;;;;3893473;22;19919;-88
2022/02/01 11:24:53;;;;;;;;;;;24.90;35.40;;;;;;3893395;22;19919;-87
2022/02/01 11:26:32;;;;;;;;;;;24.90;35.50;;;;;;3894311;22;20337;-91
2022/02/01 11:28:13;;;;;;;;;;;24.90;35.70;;;;;;3887383;22;19969;-89
2022/02/01 11:30:11;;;;;;;;;;;24.70;34.40;;;;;;3893293;22;19977;-86
2022/02/01 11:31:43;;;;;;;;;;;24.60;34.70;;;;;;3892563;22;19994;-88
2022/02/01 11:33:15;;;;;;;;;;;24.40;35.00;;;;;;3893351;22;19925;-90
2022/02/01 11:34:47;;;;;;;;;;;24.40;35.50;;;;;;3894416;22;20245;-93
2022/02/01 11:36:19;;;;;;;;;;;24.50;36.20;;;;;;3894920;22;19919;-91
2022/02/01 11:37:51;;;;;;;;;;;24.70;36.40;;;;;;3893726;22;19919;-84
2022/02/01 11:39:24;;;;;;;;;;;24.70;36.50;;;;;;3895059;22;19990;-91
2022/02/01 11:40:59;;;;;;;;;;;24.80;36.40;;;;;;3893750;22;19923;-92
2022/02/01 11:42:32;;;;;;;;;;;24.90;37.20;;;;;;3894507;22;19919;-91
2022/02/01 11:44:07;;;;;;;;;;;24.90;36.70;;;;;;3895180;22;20378;-91
2022/02/01 11:45:40;;;;;;;;;;;24.90;36.70;;;;;;3891722;22;19919;-88
2022/02/01 11:47:12;;;;;;;;;;;24.90;36.90;;;;;;3891144;22;19980;-86
2022/02/01 11:48:50;;;;;;;;;;;25.00;37.10;;;;;;3893291;22;19923;-90
2022/02/01 11:50:23;;;;;;;;;;;25.00;37.20;;;;;;3893801;22;19935;-90
2022/02/01 11:52:05;;;;;;;;;;;25.00;37.40;;;;;;3893171;22;19946;-90
2022/02/01 11:53:37;;;;;;;;;;;25.10;37.50;;;;;;3893991;22;20402;-90
2022/02/01 11:55:10;;;;;;;;;;;25.10;37.70;;;;;;3894109;22;19957;-89
2022/02/01 11:56:44;;;;;;;;;;;25.10;38.10;;;;;;3893247;22;19992;-88
2022/02/01 11:58:26;;;;;;;;;;;25.10;37.90;;;;;;3892865;22;19919;-85
2022/02/01 11:59:58;;;;;;;;;;;25.10;38.20;;;;;;3893876;22;19923;-88
2022/02/01 12:01:38;;;;;;;;;;;25.10;38.00;;;;;;3892322;22;19923;-93
2022/02/01 12:03:16;;;;;;;;;;;25.10;38.10;;;;;;3859077;23;19954;-87
2022/02/01 12:04:49;;;;;;;;;;;25.10;38.10;;;;;;3890336;22;19919;-93
2022/02/01 12:06:21;;;;;;;;;;;25.20;38.20;;;;;;3895245;22;19919;-91
2022/02/01 12:08:02;;;;;;;;;;;25.10;38.20;;;;;;3893732;22;19943;-93
2022/02/01 12:09:34;;;;;;;;;;;25.20;39.00;;;;;;3894805;22;20004;-93
2022/02/01 12:11:08;;;;;;;;;;;25.20;38.40;;;;;;3893988;22;19923;-86
2022/02/01 12:15:00;;;;;;;;;;;25.20;38.50;;;;;;3765120;23;19953;-87
2022/02/01 12:16:34;;;;;;;;;;;25.20;38.50;;;;;;3851965;22;20292;-91
2022/02/01 12:18:09;;;;;;;;;;;25.20;39.20;;;;;;3882999;22;20384;-91
2022/02/01 12:19:44;;;;;;;;;;;25.30;39.30;;;;;;3893514;22;19919;-88
2022/02/01 12:21:18;;;;;;;;;;;25.30;39.10;;;;;;3897645;22;19948;-86
2022/02/01 12:22:59;;;;;;;;;;;25.30;39.20;;;;;;3891847;22;19919;-88
2022/02/01 12:24:31;;;;;;;;;;;25.30;39.10;;;;;;3892815;22;19920;-82
2022/02/01 12:26:03;;;;;;;;;;;25.30;39.20;;;;;;3894349;22;19919;-84
2022/02/01 12:27:36;;;;;;;;;;;25.30;39.20;;;;;;3894464;22;20002;-85
2022/02/01 12:29:08;;;;;;;;;;;25.40;39.60;;;;;;3893132;22;19919;-87
2022/02/01 12:30:40;;;;;;;;;;;25.40;39.30;;;;;;3891991;22;19919;-90
2022/02/01 12:32:12;;;;;;;;;;;25.40;39.10;;;;;;3892330;22;20594;-88
2022/02/01 12:33:44;;;;;;;;;;;25.40;38.90;;;;;;3892339;22;19924;-90
2022/02/01 12:35:16;;;;;;;;;;;25.40;39.30;;;;;;3893576;22;19923;-87
2022/02/01 12:36:49;;;;;;;;;;;25.30;35.80;;;;;;3893581;22;19986;-87
2022/02/01 12:38:23;;;;;;;;;;;25.00;35.30;;;;;;3893823;22;20276;-88
2022/02/01 12:39:59;;;;;;;;;;;24.90;35.50;;;;;;3892693;22;19926;-87
2022/02/01 12:41:40;;;;;;;;;;;24.70;35.70;;;;;;3893857;22;19998;-85
2022/02/01 12:43:17;;;;;;;;;;;24.60;36.20;;;;;;3893012;22;19919;-89
2022/02/01 12:46:43;;;;;;;;;;;24.80;36.70;;;;;;3892513;22;19916;-90
2022/02/01 12:48:15;;;;;;;;;;;24.90;37.00;;;;;;3893293;22;19919;-87
2022/02/01 12:49:47;;;;;;;;;;;24.90;37.00;;;;;;3893115;22;19923;-88
2022/02/01 12:51:18;;;;;;;;;;;25.00;37.10;;;;;;3893876;22;20145;-89
2022/02/01 12:52:55;;;;;;;;;;;25.00;37.30;;;;;;3893781;22;20330;-92
2022/02/01 12:54:27;;;;;;;;;;;25.10;37.40;;;;;;3894226;22;19986;-88
2022/02/01 12:55:59;;;;;;;;;;;25.10;37.40;;;;;;3893941;22;19950;-88
2022/02/01 12:57:30;;;;;;;;;;;25.10;36.50;;;;;;3892938;22;20288;-90
2022/02/01 12:59:03;;;;;;;;;;;24.90;36.00;;;;;;3894295;22;19919;-89
2022/02/01 13:00:35;;;;;;;;;;;24.70;36.20;;;;;;3892907;22;19925;-89
2022/02/01 13:02:07;;;;;;;;;;;24.60;36.40;;;;;;3894583;22;19961;-89
2022/02/01 13:03:42;;;;;;;;;;;24.50;37.20;;;;;;3894293;22;19939;-87
2022/02/01 13:05:14;;;;;;;;;;;24.50;36.80;;;;;;3894155;22;20006;-87
2022/02/01 13:06:47;;;;;;;;;;;24.50;37.10;;;;;;3893558;22;19920;-87
